createdAt,value
2023-11-01T00:01:34.186Z,10.84
2023-11-01T00:04:37.515Z,10.79
2023-11-01T00:07:40.611Z,10.68
2023-11-01T00:10:43.970Z,10.72
2023-11-01T00:13:46.857Z,10.57
2023-11-01T00:16:49.958Z,10.63
2023-11-01T00:19:52.886Z,10.57
2023-11-01T00:22:55.925Z,10.30
2023-11-01T00:25:58.811Z,10.42
2023-11-01T00:29:02.182Z,10.41
2023-11-01T00:32:05.289Z,10.36
2023-11-01T00:35:09.192Z,10.27
2023-11-01T00:38:12.476Z,10.00
2023-11-01T00:41:15.829Z,10.10
2023-11-01T00:44:18.625Z,10.01
2023-11-01T00:47:21.875Z,9.85
2023-11-01T00:50:24.822Z,9.76
2023-11-01T00:53:28.100Z,9.72
2023-11-01T00:56:30.874Z,9.50
2023-11-01T00:59:34.050Z,9.50
2023-11-01T01:02:37.171Z,9.40
2023-11-01T01:05:40.284Z,9.58
2023-11-01T01:08:43.247Z,9.32
2023-11-01T01:11:46.663Z,9.20
2023-11-01T01:14:49.667Z,9.21
2023-11-01T01:17:54.479Z,9.32
2023-11-01T01:20:57.226Z,9.13
2023-11-01T01:24:00.746Z,9.09
2023-11-01T01:27:03.891Z,8.81
2023-11-01T01:30:07.898Z,8.66
2023-11-01T01:33:10.616Z,8.56
2023-11-01T01:36:14.028Z,8.65
2023-11-01T01:39:16.910Z,8.64
2023-11-01T01:42:20.073Z,8.55
2023-11-01T01:45:23.015Z,8.52
2023-11-01T01:48:26.630Z,8.45
2023-11-01T01:51:30.062Z,8.46
2023-11-01T01:54:33.469Z,8.20
2023-11-01T01:57:36.300Z,8.29
2023-11-01T02:00:40.082Z,8.22
2023-11-01T02:03:43.479Z,8.22
2023-11-01T02:06:46.568Z,8.27
2023-11-01T02:09:49.925Z,8.13
2023-11-01T02:12:53.353Z,8.17
2023-11-01T02:15:58.199Z,8.17
2023-11-01T02:19:01.103Z,8.22
2023-11-01T02:22:04.633Z,8.15
2023-11-01T02:25:08.120Z,7.93
2023-11-01T02:28:13.117Z,8.07
2023-11-01T02:31:15.875Z,7.91
2023-11-01T02:34:19.201Z,7.89
2023-11-01T02:37:22.707Z,7.97
2023-11-01T02:40:25.900Z,7.86
2023-11-01T02:43:28.821Z,7.92
2023-11-01T02:46:31.804Z,7.88
2023-11-01T02:49:34.783Z,8.07
2023-11-01T02:52:40.091Z,7.93
2023-11-01T02:55:43.191Z,7.96
2023-11-01T02:58:46.208Z,7.90
2023-11-01T03:01:50.884Z,8.01
2023-11-01T03:04:54.361Z,8.09
2023-11-01T03:07:57.863Z,8.02
2023-11-01T03:11:01.248Z,8.02
2023-11-01T03:14:04.042Z,8.06
2023-11-01T03:17:11.349Z,8.12
2023-11-01T03:20:14.281Z,7.99
2023-11-01T03:23:17.537Z,7.85
2023-11-01T03:26:20.556Z,7.96
2023-11-01T03:29:23.771Z,7.98
2023-11-01T03:32:26.834Z,8.06
2023-11-01T03:35:30.228Z,8.05
2023-11-01T03:38:34.104Z,8.23
2023-11-01T03:41:43.988Z,8.25
2023-11-01T03:44:46.767Z,8.37
2023-11-01T03:47:50.473Z,8.44
2023-11-01T03:50:53.917Z,8.42
2023-11-01T03:53:56.939Z,8.47
2023-11-01T03:56:59.676Z,8.52
2023-11-01T04:00:03.157Z,8.67
2023-11-01T04:03:07.651Z,8.72
2023-11-01T04:06:10.976Z,8.90
2023-11-01T04:09:14.004Z,8.87
2023-11-01T04:12:17.166Z,8.96
2023-11-01T04:15:19.956Z,8.94
2023-11-01T04:18:23.303Z,8.80
2023-11-01T04:21:26.175Z,8.79
2023-11-01T04:24:30.044Z,8.82
2023-11-01T04:27:43.046Z,8.87
2023-11-01T04:30:46.415Z,8.86
2023-11-01T04:33:50.274Z,8.64
2023-11-01T04:36:53.409Z,8.74
2023-11-01T04:39:56.228Z,8.84
2023-11-01T04:42:59.607Z,8.89
2023-11-01T04:46:02.484Z,8.83
2023-11-01T04:49:05.874Z,8.83
2023-11-01T04:52:09.293Z,9.03
2023-11-01T04:55:12.786Z,9.10
2023-11-01T04:58:15.760Z,8.78
2023-11-01T05:01:19.100Z,8.78
2023-11-01T05:04:21.838Z,8.79
2023-11-01T05:07:24.868Z,8.85
2023-11-01T05:10:28.140Z,9.03
2023-11-01T05:13:31.233Z,8.98
2023-11-01T05:16:34.571Z,8.93
2023-11-01T05:19:37.638Z,9.09
2023-11-01T05:22:40.605Z,9.05
2023-11-01T05:25:43.902Z,9.38
2023-11-01T05:28:47.129Z,9.49
2023-11-01T05:31:50.684Z,9.40
2023-11-01T05:34:54.288Z,9.29
2023-11-01T05:37:57.607Z,9.36
2023-11-01T05:41:01.229Z,9.52
2023-11-01T05:44:04.982Z,9.48
2023-11-01T05:47:07.803Z,9.59
2023-11-01T05:50:13.770Z,9.54
2023-11-01T05:53:17.332Z,9.46
2023-11-01T05:56:21.682Z,9.50
2023-11-01T05:59:24.563Z,9.54
2023-11-01T06:02:29.235Z,9.54
2023-11-01T06:05:32.574Z,9.57
2023-11-01T06:08:35.769Z,9.55
2023-11-01T06:11:39.409Z,9.56
2023-11-01T06:14:42.442Z,9.66
2023-11-01T06:17:45.770Z,9.65
2023-11-01T06:20:48.908Z,9.63
2023-11-01T06:23:52.069Z,9.69
2023-11-01T06:26:55.063Z,9.73
2023-11-01T06:29:58.938Z,9.69
2023-11-01T06:33:03.252Z,9.66
2023-11-01T06:36:08.321Z,9.68
2023-11-01T06:39:11.143Z,9.63
2023-11-01T06:42:14.821Z,9.58
2023-11-01T06:45:17.614Z,9.60
2023-11-01T06:48:20.896Z,9.70
2023-11-01T06:51:23.586Z,9.83
2023-11-01T06:54:27.001Z,9.94
2023-11-01T06:57:29.707Z,10.05
2023-11-01T07:00:35.450Z,10.08
2023-11-01T07:03:38.528Z,10.10
2023-11-01T07:06:45.706Z,10.12
2023-11-01T07:09:48.387Z,10.26
2023-11-01T07:12:51.771Z,10.26
2023-11-01T07:15:54.639Z,10.37
2023-11-01T07:18:59.389Z,10.44
2023-11-01T07:22:02.199Z,10.52
2023-11-01T07:25:05.725Z,10.65
2023-11-01T07:28:08.587Z,10.70
2023-11-01T07:31:11.705Z,10.80
2023-11-01T07:34:14.688Z,10.88
2023-11-01T07:37:17.814Z,10.95
2023-11-01T07:40:20.526Z,10.99
2023-11-01T07:43:24.021Z,11.06
2023-11-01T07:46:26.821Z,11.18
2023-11-01T07:49:29.818Z,11.27
2023-11-01T07:52:32.603Z,11.34
2023-11-01T07:55:36.074Z,11.44
2023-11-01T07:58:38.913Z,11.55
2023-11-01T08:01:42.489Z,11.67
2023-11-01T08:04:46.127Z,11.84
2023-11-01T08:07:49.108Z,11.96
2023-11-01T08:10:52.385Z,12.05
2023-11-01T08:13:55.134Z,12.10
2023-11-01T08:16:58.310Z,12.21
2023-11-01T08:20:02.550Z,12.35
2023-11-01T08:23:05.912Z,12.44
2023-11-01T08:26:08.764Z,12.84
2023-11-01T08:29:11.900Z,12.98
2023-11-01T08:32:15.069Z,13.16
2023-11-01T08:35:18.608Z,13.29
2023-11-01T08:38:21.525Z,13.42
2023-11-01T08:41:24.842Z,13.64
2023-11-01T08:44:27.836Z,13.87
2023-11-01T08:47:39.813Z,14.23
2023-11-01T08:50:42.837Z,14.86
2023-11-01T08:53:45.940Z,15.45
2023-11-01T08:56:49.083Z,16.68
2023-11-01T08:59:53.014Z,17.88
2023-11-01T09:02:56.156Z,19.15
2023-11-01T09:05:59.410Z,19.51
2023-11-01T09:09:02.242Z,19.98
2023-11-01T09:12:05.703Z,21.28
2023-11-01T09:15:14.681Z,21.75
2023-11-01T09:18:17.941Z,22.06
2023-11-01T09:21:21.238Z,21.70
2023-11-01T09:24:26.601Z,22.23
2023-11-01T09:27:29.534Z,21.47
2023-11-01T09:30:32.905Z,21.58
2023-11-01T09:33:36.891Z,22.02
2023-11-01T09:36:42.029Z,22.48
2023-11-01T09:39:44.797Z,22.16
2023-11-01T09:42:50.952Z,21.50
2023-11-01T09:45:53.984Z,22.55
2023-11-01T09:48:58.260Z,23.17
2023-11-01T09:52:04.614Z,24.00
2023-11-01T09:55:08.892Z,24.30
2023-11-01T09:58:13.674Z,24.48
2023-11-01T10:01:18.257Z,25.02
2023-11-01T10:04:21.873Z,24.74
2023-11-01T10:07:25.206Z,25.16
2023-11-01T10:10:28.583Z,25.11
2023-11-01T10:13:32.433Z,25.54
2023-11-01T10:16:43.051Z,24.23
2023-11-01T10:19:46.440Z,25.04
2023-11-01T10:22:49.890Z,25.58
2023-11-01T10:25:52.932Z,25.31
2023-11-01T10:28:58.151Z,25.71
2023-11-01T10:32:01.212Z,26.34
2023-11-01T10:35:12.508Z,26.15
2023-11-01T10:38:15.376Z,24.98
2023-11-01T10:41:19.725Z,25.66
2023-11-01T10:44:27.606Z,26.36
2023-11-01T10:47:31.537Z,26.22
2023-11-01T10:50:35.776Z,26.46
2023-11-01T10:53:40.233Z,26.85
2023-11-01T10:56:43.784Z,26.85
2023-11-01T11:00:00.009Z,26.54
2023-11-01T11:03:43.248Z,26.51
2023-11-01T11:06:58.476Z,26.32
2023-11-01T11:10:34.113Z,26.07
2023-11-01T11:13:37.662Z,25.14
2023-11-01T11:17:09.257Z,24.86
2023-11-01T11:20:18.233Z,24.53
2023-11-01T11:23:32.789Z,25.06
2023-11-01T11:26:40.128Z,25.45
2023-11-01T11:29:46.992Z,25.52
2023-11-01T11:33:07.486Z,25.11
2023-11-01T11:36:11.195Z,24.47
2023-11-01T11:39:15.066Z,23.75
2023-11-01T11:42:42.784Z,23.70
2023-11-01T11:45:47.292Z,23.82
2023-11-01T11:48:52.689Z,24.41
2023-11-01T11:52:04.459Z,24.41
2023-11-01T11:55:08.033Z,25.12
2023-11-01T11:58:12.070Z,25.22
2023-11-01T12:01:28.491Z,24.85
2023-11-01T12:04:37.529Z,24.53
2023-11-01T12:07:44.876Z,24.80
2023-11-01T12:10:51.379Z,25.01
2023-11-01T12:13:54.532Z,24.31
2023-11-01T12:17:03.558Z,23.22
2023-11-01T12:20:11.468Z,23.29
2023-11-01T12:23:15.082Z,23.42
2023-11-01T12:26:17.946Z,23.91
2023-11-01T12:29:21.351Z,23.89
2023-11-01T12:32:25.206Z,23.22
2023-11-01T12:35:28.595Z,23.73
2023-11-01T12:38:35.134Z,23.74
2023-11-01T12:41:38.638Z,23.85
2023-11-01T12:44:41.451Z,23.19
2023-11-01T12:47:48.370Z,23.01
2023-11-01T12:50:51.363Z,22.42
2023-11-01T12:53:59.983Z,22.03
2023-11-01T12:57:03.628Z,22.53
2023-11-01T13:00:09.756Z,23.02
2023-11-01T13:03:14.237Z,22.77
2023-11-01T13:06:17.790Z,22.40
2023-11-01T13:09:20.794Z,21.86
2023-11-01T13:12:25.155Z,21.19
2023-11-01T13:15:28.162Z,20.14
2023-11-01T13:18:31.605Z,19.79
2023-11-01T13:21:34.996Z,19.83
2023-11-01T13:24:38.264Z,19.29
2023-11-01T13:27:41.480Z,18.77
2023-11-01T13:30:44.757Z,18.26
2023-11-01T13:33:49.419Z,18.04
2023-11-01T13:36:55.614Z,17.72
2023-11-01T13:39:59.665Z,17.58
2023-11-01T13:43:02.779Z,17.47
2023-11-01T13:46:06.384Z,17.35
2023-11-01T13:49:10.807Z,17.17
2023-11-01T13:52:14.767Z,17.05
2023-11-01T13:55:18.073Z,16.91
2023-11-01T13:58:21.902Z,16.81
2023-11-01T14:01:25.173Z,16.80
2023-11-01T14:04:29.292Z,16.72
2023-11-01T14:07:34.829Z,16.64
2023-11-01T14:10:38.814Z,16.61
2023-11-01T14:13:44.988Z,16.55
2023-11-01T14:16:49.160Z,16.50
2023-11-01T14:19:56.242Z,16.45
2023-11-01T14:22:59.727Z,16.38
2023-11-01T14:26:02.556Z,16.27
2023-11-01T14:29:06.190Z,16.21
2023-11-01T14:32:08.997Z,16.16
2023-11-01T14:35:12.983Z,16.07
2023-11-01T14:38:15.892Z,15.97
2023-11-01T14:41:19.401Z,15.88
2023-11-01T14:44:22.689Z,15.78
2023-11-01T14:47:26.255Z,15.67
2023-11-01T14:50:29.443Z,15.60
2023-11-01T14:53:32.757Z,15.51
2023-11-01T14:56:35.645Z,15.41
2023-11-01T14:59:38.897Z,15.28
2023-11-01T15:02:42.650Z,15.20
2023-11-01T15:05:46.099Z,15.09
2023-11-01T15:08:48.974Z,14.99
2023-11-01T15:11:52.435Z,14.88
2023-11-01T15:14:55.808Z,14.77
2023-11-01T15:17:59.007Z,14.62
2023-11-01T15:21:04.004Z,14.49
2023-11-01T15:24:08.252Z,14.38
2023-11-01T15:27:11.528Z,14.26
2023-11-01T15:30:17.266Z,14.16
2023-11-01T15:33:20.760Z,14.08
2023-11-01T15:36:25.041Z,13.97
2023-11-01T15:39:28.691Z,13.87
2023-11-01T15:42:31.843Z,13.75
2023-11-01T15:45:35.423Z,13.63
2023-11-01T15:48:39.560Z,13.52
2023-11-01T15:51:43.542Z,13.47
2023-11-01T15:54:46.922Z,13.37
2023-11-01T15:57:50.830Z,13.36
2023-11-01T16:00:54.126Z,13.27
2023-11-01T16:03:59.250Z,13.17
2023-11-01T16:07:03.036Z,13.14
2023-11-01T16:10:08.173Z,13.14
2023-11-01T16:13:11.704Z,13.13
2023-11-01T16:16:15.483Z,13.06
2023-11-01T16:19:20.138Z,13.00
2023-11-01T16:22:26.615Z,13.00
2023-11-01T16:25:32.245Z,12.99
2023-11-01T16:28:36.696Z,13.01
2023-11-01T16:31:39.523Z,12.96
2023-11-01T16:34:46.765Z,13.06
2023-11-01T16:37:50.519Z,13.04
2023-11-01T16:40:54.810Z,13.08
2023-11-01T16:43:58.029Z,13.05
2023-11-01T16:47:02.438Z,13.08
2023-11-01T16:50:06.777Z,13.03
2023-11-01T16:53:10.922Z,13.05
2023-11-01T16:56:15.130Z,13.03
2023-11-01T16:59:19.573Z,13.07
2023-11-01T17:02:29.395Z,13.01
2023-11-01T17:05:34.176Z,12.95
2023-11-01T17:08:38.233Z,12.96
2023-11-01T17:11:42.963Z,13.02
2023-11-01T17:14:47.658Z,13.07
2023-11-01T17:17:53.769Z,13.05
2023-11-01T17:20:58.364Z,13.15
2023-11-01T17:24:03.410Z,13.15
2023-11-01T17:27:09.267Z,13.22
2023-11-01T17:30:14.001Z,13.17
2023-11-01T17:33:17.867Z,13.21
2023-11-01T17:36:25.418Z,13.21
2023-11-01T17:39:39.861Z,13.22
2023-11-01T17:42:43.362Z,13.20
2023-11-01T17:45:48.957Z,13.16
2023-11-01T17:48:53.810Z,13.12
2023-11-01T17:51:57.559Z,13.15
2023-11-01T17:55:01.632Z,13.10
2023-11-01T17:58:05.015Z,13.05
2023-11-01T18:01:08.066Z,13.00
2023-11-01T18:04:11.604Z,12.94
2023-11-01T18:07:16.773Z,12.89
2023-11-01T18:10:19.880Z,12.79
2023-11-01T18:13:29.469Z,12.75
2023-11-01T18:16:38.000Z,12.67
2023-11-01T18:19:41.934Z,12.57
2023-11-01T18:22:44.891Z,12.62
2023-11-01T18:26:10.922Z,12.54
2023-11-01T18:29:17.026Z,12.53
2023-11-01T18:32:19.736Z,12.57
2023-11-01T18:35:30.991Z,12.54
2023-11-01T18:38:46.664Z,12.58
2023-11-01T18:41:51.374Z,12.61
2023-11-01T18:44:55.314Z,12.76
2023-11-01T18:47:58.488Z,12.76
2023-11-01T18:51:08.492Z,12.77
2023-11-01T18:54:11.812Z,12.73
2023-11-01T18:57:29.978Z,12.76
2023-11-01T19:00:36.503Z,12.70
2023-11-01T19:03:39.402Z,12.72
2023-11-01T19:06:42.910Z,12.73
2023-11-01T19:09:45.757Z,12.74
2023-11-01T19:12:49.969Z,12.74
2023-11-01T19:16:07.918Z,12.74
2023-11-01T19:19:11.304Z,12.78
2023-11-01T19:22:15.029Z,12.74
2023-11-01T19:25:18.324Z,12.80
2023-11-01T19:28:21.264Z,12.80
2023-11-01T19:31:24.857Z,12.83
2023-11-01T19:34:27.750Z,12.89
2023-11-01T19:37:31.230Z,12.86
2023-11-01T19:40:33.885Z,12.85
2023-11-01T19:43:37.048Z,12.82
2023-11-01T19:46:40.969Z,12.82
2023-11-01T19:49:44.335Z,12.85
2023-11-01T19:52:46.991Z,12.86
2023-11-01T19:55:50.472Z,12.85
2023-11-01T19:58:54.587Z,12.89
2023-11-01T20:01:57.661Z,12.89
2023-11-01T20:05:00.802Z,12.89
2023-11-01T20:08:03.513Z,12.91
2023-11-01T20:11:07.765Z,12.88
2023-11-01T20:14:13.747Z,12.85
2023-11-01T20:17:17.189Z,12.83
2023-11-01T20:20:20.779Z,12.84
2023-11-01T20:23:23.770Z,12.82
2023-11-01T20:26:26.421Z,12.78
2023-11-01T20:29:29.415Z,12.77
2023-11-01T20:32:32.064Z,12.80
2023-11-01T20:35:35.892Z,12.77
2023-11-01T20:38:39.913Z,12.74
2023-11-01T20:41:43.432Z,12.70
2023-11-01T20:44:46.297Z,12.70
2023-11-01T20:47:51.133Z,12.70
2023-11-01T20:50:53.886Z,12.68
2023-11-01T20:54:00.269Z,12.66
2023-11-01T20:57:04.489Z,12.62
2023-11-01T21:00:11.861Z,12.64
2023-11-01T21:03:14.946Z,12.63
2023-11-01T21:06:22.124Z,12.56
2023-11-01T21:09:26.891Z,12.56
2023-11-01T21:12:30.357Z,12.62
2023-11-01T21:15:33.659Z,12.63
2023-11-01T21:18:37.248Z,12.66
2023-11-01T21:21:41.086Z,12.62
2023-11-01T21:24:46.102Z,12.65
2023-11-01T21:27:49.079Z,12.60
2023-11-01T21:30:52.157Z,12.58
2023-11-01T21:33:55.351Z,12.54
2023-11-01T21:36:58.598Z,12.47
2023-11-01T21:40:02.136Z,12.40
2023-11-01T21:43:05.442Z,12.40
2023-11-01T21:46:08.110Z,12.41
2023-11-01T21:49:19.344Z,12.44
2023-11-01T21:52:23.786Z,12.38
2023-11-01T21:55:56.116Z,12.36
2023-11-01T21:59:09.406Z,12.36
2023-11-01T22:02:40.992Z,12.38
2023-11-01T22:05:44.331Z,12.38
2023-11-01T22:09:00.018Z,12.37
2023-11-01T22:12:04.121Z,12.40
2023-11-01T22:15:07.530Z,12.43
2023-11-01T22:18:20.542Z,12.47
2023-11-01T22:21:23.843Z,12.51
2023-11-01T22:24:31.186Z,12.56
2023-11-01T22:27:45.116Z,12.54
2023-11-01T22:30:49.059Z,12.54
2023-11-01T22:33:55.465Z,12.56
2023-11-01T22:36:58.720Z,12.50
2023-11-01T22:40:01.589Z,12.44
2023-11-01T22:43:05.538Z,12.41
2023-11-01T22:46:08.244Z,12.40
2023-11-01T22:49:11.509Z,12.37
2023-11-01T22:52:14.395Z,12.38
2023-11-01T22:55:17.520Z,12.40
2023-11-01T22:58:20.356Z,12.38
2023-11-01T23:01:24.531Z,12.35
2023-11-01T23:04:27.516Z,12.35
2023-11-01T23:07:32.359Z,12.33
2023-11-01T23:10:36.532Z,12.34
2023-11-01T23:13:40.778Z,12.36
2023-11-01T23:16:43.830Z,12.33
2023-11-01T23:19:48.411Z,12.29
2023-11-01T23:22:55.149Z,12.25
2023-11-01T23:25:58.549Z,12.25
2023-11-01T23:29:06.868Z,12.23
2023-11-01T23:32:21.796Z,12.26
2023-11-01T23:35:24.547Z,12.22
2023-11-01T23:38:30.174Z,12.23
2023-11-01T23:41:48.568Z,12.17
2023-11-01T23:44:54.116Z,12.14
2023-11-01T23:48:02.888Z,12.10
2023-11-01T23:51:08.906Z,12.11
2023-11-01T23:54:21.001Z,12.05
2023-11-01T23:57:27.644Z,12.06
